Time;durP1;ratioP1;P1;durP2;ratioP2;P2;SDS_P1;SDS_P2;PMS_P1;PMS_P2;Temp;Humidity;BMP_temperature;BMP_pressure;BME280_temperature;BME280_humidity;BME280_pressure;Samples;Min_cycle;Max_cycle;Signal;HPM_P1;HPM_P2
2022/01/15 00:00:39;;;;;;;111.55;58.85;;;;;;;-2.38;89.32;101159.09;1439906;89;21577;-78
2022/01/15 00:03:09;;;;;;;112.57;56.15;;;;;;;-2.40;89.42;101160.87;1433696;89;21454;-78
2022/01/15 00:05:37;;;;;;;108.42;55.03;;;;;;;-2.50;89.93;101150.39;1432040;88;21550;-78
2022/01/15 00:08:05;;;;;;;109.22;54.27;;;;;;;-2.55;90.13;101150.52;1434118;88;21447;-79
2022/01/15 00:10:33;;;;;;;117.75;60.10;;;;;;;-2.59;90.76;101158.00;1446833;89;21555;-78
2022/01/15 00:13:02;;;;;;;119.72;58.85;;;;;;;-2.60;90.36;101160.17;1437933;89;22356;-79
2022/01/15 00:15:43;;;;;;;117.00;60.65;;;;;;;-2.63;90.87;101156.83;1438075;89;21411;-79
2022/01/15 00:18:12;;;;;;;120.50;58.65;;;;;;;-2.64;90.56;101151.26;1428984;89;21607;-78
2022/01/15 00:20:35;;;;;;;123.62;61.02;;;;;;;-2.70;90.83;101154.00;1449276;88;21437;-79
2022/01/15 00:23:03;;;;;;;134.35;68.55;;;;;;;-2.73;90.55;101154.97;1439242;89;22556;-78
2022/01/15 00:25:32;;;;;;;122.45;64.32;;;;;;;-2.75;90.64;101143.80;1432787;88;21447;-79
2022/01/15 00:28:01;;;;;;;134.12;64.90;;;;;;;-2.78;90.77;101152.50;1441801;89;21442;-79
2022/01/15 00:30:29;;;;;;;124.62;61.92;;;;;;;-2.82;91.26;101158.68;1431246;89;22308;-78
2022/01/15 00:32:56;;;;;;;143.70;68.40;;;;;;;-2.82;91.10;101159.10;1436088;88;21538;-77
2022/01/15 00:35:25;;;;;;;145.53;67.67;;;;;;;-2.83;91.16;101164.73;1435596;89;21445;-78
2022/01/15 00:37:54;;;;;;;107.70;54.75;;;;;;;-2.83;90.77;101179.44;1430390;89;21460;-78
2022/01/15 00:40:22;;;;;;;101.05;55.10;;;;;;;-2.80;90.71;101176.75;1430082;89;21495;-78
2022/01/15 00:42:49;;;;;;;101.33;56.55;;;;;;;-2.81;90.58;101183.69;1435215;88;21492;-78
2022/01/15 00:45:21;;;;;;;105.83;57.98;;;;;;;-2.83;90.86;101184.16;1437121;89;21937;-78
2022/01/15 00:47:46;;;;;;;113.32;59.33;;;;;;;-2.88;90.97;101190.38;1430532;89;21529;-76
2022/01/15 00:50:14;;;;;;;116.55;57.78;;;;;;;-2.92;91.11;101194.80;1425435;89;21588;-76
2022/01/15 00:52:42;;;;;;;115.35;59.83;;;;;;;-2.92;91.03;101208.20;1447252;89;22365;-76
2022/01/15 00:55:12;;;;;;;107.55;56.70;;;;;;;-2.93;91.21;101207.36;1416443;89;21536;-76
2022/01/15 00:57:40;;;;;;;95.17;50.35;;;;;;;-2.93;91.17;101217.72;1437403;89;21493;-76
2022/01/15 01:00:13;;;;;;;112.03;58.45;;;;;;;-2.94;90.94;101214.70;1427146;88;21475;-76
2022/01/15 01:02:41;;;;;;;111.35;57.15;;;;;;;-2.92;91.02;101223.29;1440739;89;22347;-77
2022/01/15 01:05:10;;;;;;;108.72;54.55;;;;;;;-2.96;91.29;101230.30;1379288;93;21416;-78
2022/01/15 01:07:38;;;;;;;109.30;53.33;;;;;;;-2.96;91.17;101233.34;1389678;92;22277;-79
2022/01/15 01:23:49;;;;;;;119.90;57.80;;;;;;;-2.98;90.88;101222.17;1422445;90;22672;-80
2022/01/15 01:26:37;;;;;;;107.03;56.25;;;;;;;-2.95;90.65;101225.97;1422165;91;21391;-80
2022/01/15 01:29:21;;;;;;;109.22;55.65;;;;;;;-2.96;90.45;101227.72;1417965;90;21465;-80
2022/01/15 01:31:53;;;;;;;113.08;59.65;;;;;;;-2.98;90.25;101227.34;1420076;90;22457;-80
2022/01/15 01:34:12;;;;;;;114.42;58.50;;;;;;;-2.98;90.26;101219.58;1400487;92;21703;-79
2022/01/15 01:36:45;;;;;;;105.95;56.92;;;;;;;-3.00;90.27;101229.13;1398264;92;21600;-80
2022/01/15 01:39:12;;;;;;;105.20;55.98;;;;;;;-3.02;90.33;101225.30;1446156;89;21619;-80
2022/01/15 01:41:37;;;;;;;119.85;61.18;;;;;;;-3.04;90.43;101230.11;1414102;88;21554;-80
2022/01/15 01:44:07;;;;;;;112.62;58.75;;;;;;;-3.07;90.22;101229.74;1426160;89;21459;-80
2022/01/15 01:46:48;;;;;;;116.73;61.58;;;;;;;-3.05;90.02;101227.09;1433127;89;21630;-80
2022/01/15 01:49:13;;;;;;;118.93;59.55;;;;;;;-3.03;89.97;101231.80;1435162;89;21389;-80
2022/01/15 01:51:41;;;;;;;111.65;59.58;;;;;;;-3.05;89.89;101231.86;1428141;89;21462;-81
2022/01/15 01:54:13;;;;;;;107.87;58.17;;;;;;;-3.07;89.73;101232.33;1450709;88;21448;-80
2022/01/15 01:56:40;;;;;;;104.43;52.25;;;;;;;-3.07;89.72;101228.45;1432088;89;22596;-81
2022/01/15 01:59:08;;;;;;;122.25;60.35;;;;;;;-3.11;89.53;101230.70;1434922;89;21517;-81
2022/01/15 02:01:37;;;;;;;122.37;61.83;;;;;;;-3.19;89.96;101237.39;1431852;89;21560;-79
2022/01/15 02:04:04;;;;;;;108.63;56.23;;;;;;;-3.20;89.78;101240.85;1442984;89;21420;-79
2022/01/15 02:06:32;;;;;;;114.12;59.05;;;;;;;-3.18;89.87;101249.44;1438328;88;22545;-78
2022/01/15 02:08:59;;;;;;;123.92;59.45;;;;;;;-3.20;89.75;101240.85;1423651;90;21538;-78
2022/01/15 02:11:26;;;;;;;109.05;57.75;;;;;;;-3.21;90.07;101232.69;1415228;89;22374;-78
2022/01/15 02:13:54;;;;;;;117.40;60.03;;;;;;;-3.25;90.50;101240.15;1425988;89;21442;-79
2022/01/15 02:16:22;;;;;;;103.17;55.55;;;;;;;-3.28;91.25;101241.52;1438786;88;21447;-78
2022/01/15 02:18:54;;;;;;;117.65;58.05;;;;;;;-3.33;91.78;101234.31;1434232;89;21367;-78
2022/01/15 02:23:53;;;;;;;116.28;59.33;;;;;;;-3.37;92.05;101243.48;1391409;89;23597;-78
2022/01/15 02:26:26;;;;;;;115.70;58.52;;;;;;;-3.37;92.03;101241.73;1437922;89;21597;-78
2022/01/15 02:29:00;;;;;;;112.05;58.92;;;;;;;-3.38;91.83;101241.34;1439630;90;21620;-79
2022/01/15 02:31:30;;;;;;;113.90;57.80;;;;;;;-3.34;91.56;101241.66;1429486;89;21379;-78
2022/01/15 02:34:01;;;;;;;107.52;54.98;;;;;;;-3.33;91.94;101246.41;1443189;90;21536;-80
2022/01/15 02:36:35;;;;;;;106.92;52.78;;;;;;;-3.35;91.42;101245.14;1431258;88;21443;-80
2022/01/15 02:39:05;;;;;;;112.20;57.55;;;;;;;-3.44;91.77;101242.34;1446393;89;22313;-79
2022/01/15 02:41:37;;;;;;;105.63;53.75;;;;;;;-3.47;91.84;101237.25;1442619;89;21463;-79
2022/01/15 02:44:15;;;;;;;101.47;50.92;;;;;;;-3.46;91.92;101238.09;1436383;89;21529;-78
2022/01/15 02:49:18;;;;;;;103.55;50.73;;;;;;;-3.48;91.92;101237.27;1437639;89;21766;-79
2022/01/15 02:51:45;;;;;;;101.12;52.95;;;;;;;-3.46;91.37;101240.68;1430530;89;21377;-78
2022/01/15 02:54:12;;;;;;;97.80;53.87;;;;;;;-3.43;91.38;101241.89;1430666;89;21686;-78
2022/01/15 02:56:43;;;;;;;95.03;49.27;;;;;;;-3.43;91.18;101249.66;1423979;89;21399;-79
2022/01/15 02:59:21;;;;;;;87.20;43.73;;;;;;;-3.44;91.54;101238.91;1429684;89;22468;-79
2022/01/15 03:01:52;;;;;;;90.85;46.95;;;;;;;-3.48;91.74;101250.21;1435778;89;21521;-79
2022/01/15 03:04:19;;;;;;;91.17;47.05;;;;;;;-3.50;92.60;101249.42;1417224;89;21414;-79
2022/01/15 03:06:46;;;;;;;94.92;45.52;;;;;;;-3.55;92.84;101249.52;1442865;89;21964;-79
2022/01/15 03:09:13;;;;;;;88.67;46.88;;;;;;;-3.55;93.12;101257.28;1439354;90;21514;-79
2022/01/15 03:11:42;;;;;;;93.45;47.73;;;;;;;-3.50;92.46;101250.27;1432144;89;21485;-79
2022/01/15 03:14:09;;;;;;;88.20;46.28;;;;;;;-3.49;92.63;101257.58;1436730;89;22399;-79
2022/01/15 03:16:37;;;;;;;93.37;48.58;;;;;;;-3.44;92.82;101263.50;1422032;89;22347;-79
2022/01/15 03:19:04;;;;;;;89.50;46.73;;;;;;;-3.43;93.18;101257.42;1445912;89;21641;-79
2022/01/15 03:21:31;;;;;;;89.95;47.30;;;;;;;-3.38;92.99;101263.80;1434283;88;21403;-80
2022/01/15 03:23:58;;;;;;;97.15;47.80;;;;;;;-3.33;92.74;101256.31;1412477;89;21456;-78
2022/01/15 03:26:25;;;;;;;83.47;44.13;;;;;;;-3.30;93.08;101272.22;1440629;89;21592;-78
2022/01/15 03:28:52;;;;;;;89.70;48.20;;;;;;;-3.25;93.04;101259.98;1438757;89;21427;-79
2022/01/15 03:31:20;;;;;;;88.22;48.50;;;;;;;-3.23;92.76;101264.23;1441063;89;22412;-78
2022/01/15 03:33:47;;;;;;;84.28;46.40;;;;;;;-3.19;92.86;101261.99;1380744;92;21556;-79
2022/01/15 03:36:14;;;;;;;88.42;45.08;;;;;;;-3.14;92.61;101264.89;1390473;92;22563;-79
2022/01/15 03:38:41;;;;;;;83.25;43.80;;;;;;;-3.09;92.48;101261.74;1387002;92;21570;-79
2022/01/15 03:41:08;;;;;;;76.45;41.25;;;;;;;-3.03;92.43;101266.76;1390174;92;22488;-79
2022/01/15 03:43:36;;;;;;;74.12;39.98;;;;;;;-3.08;91.84;101276.38;1428039;90;21664;-79
2022/01/15 03:46:03;;;;;;;74.60;41.53;;;;;;;-3.12;91.88;101282.55;1439334;90;22299;-79
2022/01/15 03:48:30;;;;;;;73.22;41.42;;;;;;;-3.18;91.99;101277.92;1427781;89;21559;-79
2022/01/15 03:50:58;;;;;;;67.40;38.28;;;;;;;-3.19;91.87;101280.56;1424869;89;22655;-79
2022/01/15 03:53:25;;;;;;;77.87;41.50;;;;;;;-3.22;92.00;101278.91;1436820;89;21523;-79
2022/01/15 03:55:52;;;;;;;73.65;39.83;;;;;;;-3.24;91.71;101285.84;1440512;89;21462;-79
2022/01/15 03:58:20;;;;;;;72.22;40.60;;;;;;;-3.25;91.80;101286.75;1443075;89;21537;-79
2022/01/15 04:00:48;;;;;;;77.65;43.20;;;;;;;-3.22;91.73;101287.13;1442593;89;21441;-79
2022/01/15 04:03:16;;;;;;;76.75;40.98;;;;;;;-3.19;91.70;101293.52;1437758;89;22512;-79
2022/01/15 04:05:43;;;;;;;71.80;40.00;;;;;;;-3.23;91.50;101288.83;1435465;89;21546;-79
2022/01/15 04:08:11;;;;;;;67.30;37.48;;;;;;;-3.31;91.56;101292.09;1440182;89;22464;-79
2022/01/15 04:10:38;;;;;;;75.30;40.78;;;;;;;-3.43;91.68;101289.33;1418722;89;21527;-80
2022/01/15 04:13:05;;;;;;;65.20;37.67;;;;;;;-3.46;91.53;101289.85;1437280;89;21522;-80
2022/01/15 04:15:32;;;;;;;69.17;37.90;;;;;;;-3.48;91.75;101287.32;1446151;89;21555;-80
2022/01/15 04:17:59;;;;;;;73.85;38.90;;;;;;;-3.50;91.77;101290.83;1442788;88;21408;-80
2022/01/15 04:20:27;;;;;;;62.25;34.40;;;;;;;-3.50;92.16;101286.50;1437306;89;21502;-80
2022/01/15 04:22:54;;;;;;;87.78;47.08;;;;;;;-3.51;92.09;101296.88;1437155;89;21554;-80
2022/01/15 04:25:22;;;;;;;80.83;42.33;;;;;;;-3.52;92.15;101302.95;1434294;89;21463;-80
2022/01/15 04:27:50;;;;;;;83.58;46.77;;;;;;;-3.54;92.94;101296.53;1435407;89;21548;-79
2022/01/15 04:30:21;;;;;;;85.03;43.00;;;;;;;-3.52;92.68;101301.20;1446887;89;22518;-80
2022/01/15 04:32:48;;;;;;;88.70;44.38;;;;;;;-3.57;93.31;101314.69;1436285;88;21644;-79
2022/01/15 04:35:15;;;;;;;78.57;40.28;;;;;;;-3.49;92.84;101313.22;1445240;89;22784;-80
2022/01/15 04:37:50;;;;;;;84.92;44.15;;;;;;;-3.50;92.56;101327.06;1453542;89;21445;-79
2022/01/15 04:40:16;;;;;;;93.10;44.63;;;;;;;-3.49;92.76;101317.11;1394835;92;21992;-78
2022/01/15 04:42:44;;;;;;;86.97;44.45;;;;;;;-3.49;92.66;101319.69;1390467;92;21475;-78
2022/01/15 04:45:12;;;;;;;78.07;44.60;;;;;;;-3.55;92.54;101337.95;1401669;92;22487;-78
2022/01/15 04:47:40;;;;;;;89.67;46.18;;;;;;;-3.60;93.17;101322.97;1409762;92;22044;-78
2022/01/15 04:50:13;;;;;;;84.95;44.73;;;;;;;-3.63;92.85;101326.03;1393123;92;22555;-78
2022/01/15 04:52:41;;;;;;;102.97;47.20;;;;;;;-3.66;93.37;101340.34;1429018;90;21569;-79
2022/01/15 04:55:11;;;;;;;75.92;38.80;;;;;;;-3.63;93.72;101342.00;1428830;91;21690;-80
2022/01/15 04:57:40;;;;;;;89.90;45.83;;;;;;;-3.68;93.31;101338.25;1394559;92;21424;-80
2022/01/15 05:00:13;;;;;;;79.92;40.70;;;;;;;-3.71;94.09;101349.96;1417261;90;21407;-80
2022/01/15 05:02:40;;;;;;;77.78;41.25;;;;;;;-3.66;94.00;101345.51;1393237;92;21465;-80
2022/01/15 05:05:08;;;;;;;83.72;41.98;;;;;;;-3.70;94.29;101345.19;1406652;92;22157;-81
2022/01/15 05:07:36;;;;;;;84.15;45.55;;;;;;;-3.71;94.84;101339.61;1386539;92;21614;-79
2022/01/15 05:10:16;;;;;;;72.78;40.28;;;;;;;-3.68;94.53;101342.58;1404336;91;21519;-80
2022/01/15 05:12:46;;;;;;;74.53;39.13;;;;;;;-3.74;95.11;101344.86;1398800;91;21595;-80
2022/01/15 05:15:14;;;;;;;78.10;41.10;;;;;;;-3.64;94.78;101347.62;1397799;92;21603;-79
2022/01/15 05:17:42;;;;;;;80.30;42.30;;;;;;;-3.56;94.65;101333.68;1397237;90;21468;-79
2022/01/15 05:20:12;;;;;;;72.62;39.15;;;;;;;-3.54;94.47;101348.70;1396520;93;21488;-79
2022/01/15 05:22:39;;;;;;;71.90;40.58;;;;;;;-3.53;94.83;101351.27;1416351;90;21421;-79
2022/01/15 05:25:07;;;;;;;74.17;38.80;;;;;;;-3.49;94.92;101352.05;1416770;89;21347;-79
2022/01/15 05:27:39;;;;;;;69.90;36.95;;;;;;;-3.40;94.66;101353.12;1430184;89;22353;-79
2022/01/15 05:30:07;;;;;;;65.62;33.90;;;;;;;-3.37;94.58;101354.34;1443264;89;22543;-79
2022/01/15 05:32:34;;;;;;;77.60;40.05;;;;;;;-3.31;94.57;101361.11;1438360;89;21640;-80
2022/01/15 05:35:01;;;;;;;74.62;40.92;;;;;;;-3.28;94.55;101361.03;1447402;89;21456;-80
2022/01/15 05:37:28;;;;;;;67.22;36.53;;;;;;;-3.21;94.74;101360.02;1448890;89;22967;-78
2022/01/15 05:39:56;;;;;;;73.22;37.40;;;;;;;-3.16;94.59;101372.41;1434741;90;21525;-80
2022/01/15 05:42:24;;;;;;;63.68;31.87;;;;;;;-3.10;94.49;101370.12;1435926;89;22494;-78
2022/01/15 05:44:51;;;;;;;69.50;36.83;;;;;;;-3.13;95.06;101368.91;1459157;87;21484;-80
2022/01/15 05:47:18;;;;;;;70.52;35.33;;;;;;;-3.13;94.65;101360.69;1451031;88;22445;-78
2022/01/15 05:49:45;;;;;;;70.62;36.30;;;;;;;-3.09;94.57;101355.82;1465704;88;21412;-77
2022/01/15 05:52:12;;;;;;;69.27;35.90;;;;;;;-3.03;94.56;101363.89;1441443;88;22473;-80
2022/01/15 05:54:40;;;;;;;66.85;34.33;;;;;;;-3.04;94.56;101371.27;1442066;88;21426;-80
2022/01/15 05:57:07;;;;;;;78.57;39.60;;;;;;;-3.03;94.32;101383.31;1452048;88;21455;-80
2022/01/15 05:59:34;;;;;;;79.80;36.93;;;;;;;-3.03;94.37;101372.95;1449943;87;21441;-80
2022/01/15 06:02:02;;;;;;;75.80;37.17;;;;;;;-3.03;94.39;101376.38;1432158;89;21499;-82
2022/01/15 06:04:29;;;;;;;73.80;38.90;;;;;;;-3.00;94.29;101372.42;1446869;87;21367;-80
2022/01/15 06:06:56;;;;;;;71.77;35.80;;;;;;;-2.99;93.88;101378.03;1447509;88;21580;-80
2022/01/15 06:09:23;;;;;;;65.85;30.48;;;;;;;-2.95;93.86;101380.09;1467040;88;22360;-80
2022/01/15 06:11:50;;;;;;;72.50;35.70;;;;;;;-2.96;93.99;101380.99;1463175;87;21412;-80
2022/01/15 06:14:18;;;;;;;69.53;33.63;;;;;;;-2.99;93.69;101381.07;1430667;89;22456;-80
2022/01/15 06:16:45;;;;;;;77.60;36.10;;;;;;;-2.96;93.66;101380.99;1421300;91;21501;-80
2022/01/15 06:19:12;;;;;;;76.28;35.68;;;;;;;-2.92;93.65;101380.47;1450442;87;21443;-80
2022/01/15 06:21:39;;;;;;;85.95;40.05;;;;;;;-2.95;93.75;101382.68;1453457;87;22470;-80
2022/01/15 06:24:07;;;;;;;80.07;36.48;;;;;;;-2.89;93.54;101383.81;1453062;88;21523;-80
2022/01/15 06:26:34;;;;;;;88.00;42.25;;;;;;;-2.88;93.37;101386.80;1454378;87;21443;-80
2022/01/15 06:29:01;;;;;;;79.42;37.90;;;;;;;-2.85;93.25;101390.64;1465778;88;21510;-80
2022/01/15 06:31:30;;;;;;;82.35;38.63;;;;;;;-2.89;93.04;101392.89;1445336;89;21436;-80
2022/01/15 06:33:59;;;;;;;76.70;37.03;;;;;;;-2.88;93.24;101404.09;1438177;89;21397;-80
2022/01/15 06:36:27;;;;;;;68.55;34.15;;;;;;;-2.87;93.33;101417.03;1461028;87;22756;-80
2022/01/15 06:38:54;;;;;;;65.92;34.92;;;;;;;-2.86;93.14;101399.28;1445993;89;21479;-80
2022/01/15 06:41:21;;;;;;;55.12;29.23;;;;;;;-2.91;93.20;101394.66;1456363;87;21428;-81
2022/01/15 06:43:49;;;;;;;62.23;32.75;;;;;;;-2.97;93.19;101411.65;1457391;87;21443;-80
2022/01/15 06:46:16;;;;;;;63.95;33.02;;;;;;;-2.99;92.95;101406.97;1454310;87;21480;-81
2022/01/15 06:48:43;;;;;;;54.13;29.52;;;;;;;-3.00;93.17;101406.09;1455381;87;21507;-81
2022/01/15 06:51:10;;;;;;;59.65;30.05;;;;;;;-2.96;93.27;101404.30;1433868;89;21534;-81
2022/01/15 06:53:38;;;;;;;60.75;30.68;;;;;;;-2.95;93.19;101409.88;1437466;88;21463;-79
2022/01/15 06:56:05;;;;;;;59.95;30.43;;;;;;;-2.92;93.32;101416.28;1440906;88;22368;-78
2022/01/15 06:58:33;;;;;;;61.95;31.40;;;;;;;-2.92;93.32;101420.61;1453314;88;22372;-79
2022/01/15 07:01:01;;;;;;;84.70;38.08;;;;;;;-2.89;93.14;101430.91;1426932;90;22411;-78
2022/01/15 07:03:28;;;;;;;69.42;32.70;;;;;;;-2.86;93.12;101418.72;1418822;90;21509;-78
2022/01/15 07:05:55;;;;;;;74.82;36.60;;;;;;;-2.84;93.01;101414.80;1423458;90;22506;-76
2022/01/15 07:08:22;;;;;;;84.35;41.37;;;;;;;-2.83;92.85;101415.20;1412264;90;21659;-77
2022/01/15 07:10:49;;;;;;;76.50;39.45;;;;;;;-2.83;92.71;101400.50;1420984;91;22417;-76
2022/01/15 07:13:20;;;;;;;73.95;37.33;;;;;;;-2.86;92.77;101405.77;1419414;90;21449;-77
2022/01/15 07:15:48;;;;;;;71.37;35.80;;;;;;;-2.86;92.71;101414.83;1428190;91;21537;-78
2022/01/15 07:18:18;;;;;;;71.20;34.83;;;;;;;-2.85;92.69;101406.61;1427545;90;21707;-79
2022/01/15 07:20:45;;;;;;;69.97;35.08;;;;;;;-2.85;92.74;101416.97;1426286;90;22456;-79
2022/01/15 07:23:12;;;;;;;77.50;36.75;;;;;;;-2.85;92.66;101426.03;1409982;89;21635;-79
2022/01/15 07:25:39;;;;;;;70.97;35.08;;;;;;;-2.81;92.66;101418.16;1419758;90;21472;-79
2022/01/15 07:28:07;;;;;;;72.03;35.55;;;;;;;-2.76;92.54;101437.05;1428047;89;22352;-79
2022/01/15 07:30:35;;;;;;;79.53;37.80;;;;;;;-2.67;92.71;101426.05;1417412;91;21457;-77
2022/01/15 07:33:02;;;;;;;71.40;33.92;;;;;;;-2.64;92.51;101425.97;1419226;90;21559;-76
2022/01/15 07:35:30;;;;;;;68.78;32.93;;;;;;;-2.58;93.17;101430.54;1472125;87;23824;-76
2022/01/15 07:37:58;;;;;;;79.82;40.83;;;;;;;-2.49;93.19;101438.53;1478527;88;21382;-76
2022/01/15 07:40:25;;;;;;;70.45;36.03;;;;;;;-2.40;93.14;101427.06;1454343;88;22505;-80
2022/01/15 07:42:52;;;;;;;70.28;33.30;;;;;;;-2.34;92.93;101432.08;1472120;88;21518;-80
2022/01/15 07:45:19;;;;;;;63.78;30.75;;;;;;;-2.33;92.02;101426.87;1448912;87;21664;-79
2022/01/15 07:47:47;;;;;;;74.37;36.88;;;;;;;-2.42;91.41;101421.06;1457395;89;21451;-80
2022/01/15 07:50:23;;;;;;;72.45;35.20;;;;;;;-2.42;91.49;101427.54;1444780;89;21424;-80
2022/01/15 07:52:47;;;;;;;73.20;37.10;;;;;;;-2.36;91.91;101426.95;1440357;89;21723;-80
2022/01/15 07:55:14;;;;;;;69.60;37.53;;;;;;;-2.30;91.76;101434.56;1435671;89;22470;-80
2022/01/15 07:57:49;;;;;;;73.15;36.88;;;;;;;-2.32;91.49;101429.86;1431868;89;21384;-81
2022/01/15 08:00:18;;;;;;;76.15;35.08;;;;;;;-2.32;91.54;101438.09;1435226;89;21538;-80
2022/01/15 08:02:46;;;;;;;73.95;36.95;;;;;;;-2.34;91.56;101444.59;1435540;89;22455;-80
2022/01/15 08:05:18;;;;;;;78.62;38.42;;;;;;;-2.25;91.90;101455.17;1426389;88;21487;-81
2022/01/15 08:07:46;;;;;;;93.60;42.38;;;;;;;-2.20;91.81;101452.02;1432111;89;21518;-82
2022/01/15 08:10:13;;;;;;;93.03;47.48;;;;;;;-2.20;91.69;101444.23;1428149;89;21503;-80
2022/01/15 08:12:51;;;;;;;81.45;39.83;;;;;;;-2.10;91.73;101456.49;1430252;90;21625;-81
2022/01/15 08:15:25;;;;;;;74.47;38.70;;;;;;;-2.09;91.47;101457.77;1440689;89;21385;-80
2022/01/15 08:17:53;;;;;;;92.70;47.45;;;;;;;-2.05;91.65;101454.63;1473431;88;21591;-80
2022/01/15 08:20:20;;;;;;;82.78;41.02;;;;;;;-1.97;91.21;101456.58;1463111;88;21537;-81
2022/01/15 08:22:47;;;;;;;63.92;33.85;;;;;;;-2.02;90.76;101464.92;1450740;87;23563;-80
2022/01/15 08:25:19;;;;;;;70.08;40.25;;;;;;;-2.03;90.91;101456.75;1460924;87;21480;-80
2022/01/15 08:27:47;;;;;;;;;;;;;;;-2.06;90.80;101462.02;1439319;89;21569;-80
2022/01/15 08:30:16;;;;;;;75.22;37.35;;;;;;;-2.03;90.67;101463.23;1446069;88;21121;-80
2022/01/15 08:32:43;;;;;;;55.75;29.67;;;;;;;-1.97;90.96;101467.41;1467842;88;21523;-80
2022/01/15 08:35:11;;;;;;;64.65;33.23;;;;;;;-1.98;90.52;101462.67;1456792;88;21478;-81
2022/01/15 08:37:40;;;;;;;74.00;35.10;;;;;;;-1.99;90.41;101460.95;1453364;88;21480;-81
2022/01/15 08:40:10;;;;;;;75.03;37.15;;;;;;;-1.96;90.51;101472.53;1449915;88;22580;-81
2022/01/15 08:42:38;;;;;;;72.72;34.15;;;;;;;-1.89;90.72;101475.83;1381556;89;21424;-81
2022/01/15 08:45:08;;;;;;;66.20;34.67;;;;;;;-1.75;91.18;101483.23;1397006;89;21340;-81
2022/01/15 08:47:35;;;;;;;79.22;38.13;;;;;;;-1.67;90.81;101477.36;1397739;90;21362;-81
2022/01/15 08:50:05;;;;;;;76.70;37.15;;;;;;;-1.58;90.79;101478.42;1411350;89;22153;-81
2022/01/15 08:52:33;;;;;;;58.87;34.50;;;;;;;-1.46;90.88;101482.41;1370139;89;21288;-80
2022/01/15 08:55:01;;;;;;;63.70;32.45;;;;;;;-1.33;90.83;101485.47;1390929;89;21522;-81
2022/01/15 08:57:56;;;;;;;63.78;31.40;;;;;;;-1.28;90.05;101482.30;1396881;89;21315;-80
2022/01/15 09:00:24;;;;;;;68.07;33.38;;;;;;;-1.17;90.00;101486.72;1396048;88;21315;-80
2022/01/15 09:02:51;;;;;;;62.23;30.92;;;;;;;-1.15;89.04;101486.23;1383480;89;22460;-81
2022/01/15 09:05:18;;;;;;;60.73;30.80;;;;;;;-1.17;88.59;101485.42;1374078;89;21447;-81
2022/01/15 09:07:46;;;;;;;66.00;32.60;;;;;;;-1.21;88.44;101492.47;1392746;89;21477;-80
2022/01/15 09:10:14;;;;;;;66.80;32.83;;;;;;;-1.16;88.97;101487.11;1424689;89;22371;-81
2022/01/15 09:12:42;;;;;;;64.65;32.90;;;;;;;-1.05;89.08;101490.23;1441271;89;21391;-80
2022/01/15 09:15:08;;;;;;;68.30;36.10;;;;;;;-1.03;88.35;101487.14;1444959;88;22524;-81
2022/01/15 09:17:36;;;;;;;62.70;31.30;;;;;;;-0.99;88.51;101493.94;1444960;89;21566;-80
2022/01/15 09:20:05;;;;;;;53.73;29.63;;;;;;;-1.03;88.01;101500.14;1438528;89;21481;-81
2022/01/15 09:22:32;;;;;;;62.17;31.97;;;;;;;-1.03;87.99;101498.84;1423941;89;21674;-81
2022/01/15 09:25:00;;;;;;;57.47;29.57;;;;;;;-1.00;88.08;101494.84;1452949;89;22502;-81
2022/01/15 09:30:13;;;;;;;59.70;30.83;;;;;;;-0.96;88.32;101489.09;1400861;89;22937;-80
2022/01/15 09:32:48;;;;;;;76.80;36.43;;;;;;;-0.93;88.33;101490.30;1423503;89;21549;-82
2022/01/15 09:35:18;;;;;;;66.73;32.83;;;;;;;-0.87;88.59;101497.05;1441654;89;21690;-82
2022/01/15 09:37:47;;;;;;;55.45;28.05;;;;;;;-0.77;88.70;101493.27;1432721;89;21712;-81
2022/01/15 09:40:14;;;;;;;60.50;30.97;;;;;;;-0.74;88.18;101493.17;1444185;89;22352;-82
2022/01/15 09:42:44;;;;;;;66.70;33.40;;;;;;;-0.75;88.11;101482.36;1436955;89;21557;-82
2022/01/15 09:45:13;;;;;;;63.93;32.23;;;;;;;-0.73;88.31;101477.97;1432509;89;21595;-81
2022/01/15 09:47:44;;;;;;;69.73;34.27;;;;;;;-0.71;88.24;101482.67;1461215;89;21732;-81
2022/01/15 09:50:16;;;;;;;76.10;33.48;;;;;;;-0.69;88.40;101475.23;1404433;89;22406;-81
2022/01/15 09:52:43;;;;;;;67.73;33.90;;;;;;;-0.63;88.63;101480.68;1404452;89;21367;-82
2022/01/15 09:55:13;;;;;;;65.60;32.03;;;;;;;-0.56;88.43;101474.36;1424206;88;21685;-82
2022/01/15 09:57:42;;;;;;;62.63;33.73;;;;;;;-0.60;87.95;101475.83;1461055;88;22981;-82
2022/01/15 10:00:15;;;;;;;58.53;32.70;;;;;;;-0.63;87.98;101471.58;1453192;87;21587;-81
2022/01/15 10:02:44;;;;;;;58.30;31.93;;;;;;;-0.65;88.02;101475.13;1442422;88;21578;-82
2022/01/15 10:05:13;;;;;;;67.30;34.63;;;;;;;-0.59;88.65;101460.16;1439149;87;21368;-81
2022/01/15 10:08:05;;;;;;;60.83;33.00;;;;;;;-0.58;88.94;101461.85;1438876;88;22375;-81
2022/01/15 10:10:34;;;;;;;;;;;;;;;-0.60;88.45;101462.38;1419836;88;21565;-81
2022/01/15 10:13:24;;;;;;;51.30;28.93;;;;;;;-0.59;88.49;101468.42;1432025;88;20241;-81
2022/01/15 10:16:05;;;;;;;55.77;29.73;;;;;;;-0.54;88.75;101461.33;1455760;88;21702;-81
2022/01/15 10:18:36;;;;;;;50.37;25.27;;;;;;;-0.51;88.63;101465.96;1435709;88;21502;-80
2022/01/15 10:21:23;;;;;;;49.67;23.50;;;;;;;-0.39;88.88;101460.80;1426318;89;21723;-81
2022/01/15 10:23:55;;;;;;;65.83;35.07;;;;;;;-0.30;88.69;101459.17;1427076;88;21370;-80
2022/01/15 10:26:31;;;;;;;70.20;37.90;;;;;;;-0.20;88.21;101455.82;1430669;88;21467;-80
2022/01/15 10:29:04;;;;;;;65.93;33.83;;;;;;;-0.15;88.04;101448.67;1429766;88;21534;-81
2022/01/15 10:31:41;;;;;;;76.80;38.50;;;;;;;-0.29;87.72;101446.58;1454735;88;21670;-81
2022/01/15 10:34:28;;;;;;;70.87;36.87;;;;;;;-0.26;88.29;101441.27;1435811;89;21680;-81
2022/01/15 10:37:12;;;;;;;68.07;35.10;;;;;;;-0.03;88.90;101444.78;1435201;89;21859;-81
2022/01/15 10:40:03;;;;;;;63.57;34.63;;;;;;;0.07;88.04;101435.76;1402271;91;21740;-80
2022/01/15 10:42:39;;;;;;;57.20;33.63;;;;;;;0.03;87.14;101433.30;1427295;89;23416;-80
2022/01/15 10:45:17;;;;;;;72.60;37.03;;;;;;;0.02;87.51;101432.46;1431756;89;21665;-80
2022/01/15 10:47:49;;;;;;;78.27;39.77;;;;;;;-0.05;87.07;101432.30;1439237;88;21817;-81
2022/01/15 10:50:27;;;;;;;67.40;35.97;;;;;;;-0.08;87.78;101433.26;1446634;88;22574;-80
2022/01/15 10:52:57;;;;;;;68.10;35.67;;;;;;;-0.08;88.02;101434.56;1439426;88;21786;-79
2022/01/15 10:55:31;;;;;;;66.17;35.30;;;;;;;-0.09;88.41;101422.44;1498517;88;21772;-79
2022/01/15 10:58:11;;;;;;;61.97;33.50;;;;;;;-0.08;87.93;101424.15;1426707;88;21676;-79
2022/01/15 11:00:46;;;;;;;73.10;36.03;;;;;;;-0.11;87.92;101424.27;1448977;87;22627;-80
2022/01/15 11:03:17;;;;;;;66.73;36.10;;;;;;;-0.08;88.00;101422.84;1451656;88;21562;-79
2022/01/15 11:05:51;;;;;;;66.63;33.60;;;;;;;-0.05;87.85;101429.24;1430469;90;21845;-81
2022/01/15 11:08:27;;;;;;;55.10;31.40;;;;;;;-0.08;87.65;101423.31;1443055;89;21830;-81
2022/01/15 11:11:00;;;;;;;60.80;32.90;;;;;;;-0.16;87.63;101422.27;1384145;91;21906;-81
2022/01/15 11:13:31;;;;;;;67.67;34.73;;;;;;;-0.17;88.05;101422.31;1413437;90;21692;-81
2022/01/15 11:16:01;;;;;;;65.92;33.80;;;;;;;-0.16;88.48;101415.77;1432475;89;21778;-81
2022/01/15 11:18:33;;;;;;;65.42;35.17;;;;;;;-0.03;89.00;101427.87;1404635;89;21327;-80
2022/01/15 11:21:07;;;;;;;69.20;36.07;;;;;;;0.03;88.66;101422.89;1420707;89;21407;-78
2022/01/15 11:23:37;;;;;;;64.00;34.23;;;;;;;0.13;88.60;101427.72;1423641;89;21571;-79
2022/01/15 11:26:24;;;;;;;62.50;32.57;;;;;;;0.19;87.94;101422.28;1421170;90;21504;-78
2022/01/15 11:28:53;;;;;;;58.60;32.37;;;;;;;0.18;87.56;101421.05;1356701;91;21551;-81
2022/01/15 11:31:24;;;;;;;62.37;33.33;;;;;;;0.20;87.68;101418.80;1377762;89;21712;-80
2022/01/15 11:33:55;;;;;;;;;;;;;;;0.26;87.78;101419.02;1434038;92;21591;-81
2022/01/15 11:36:42;;;;;;;58.13;32.33;;;;;;;0.25;87.24;101417.30;1433284;92;20268;-81
2022/01/15 11:39:20;;;;;;;53.53;29.57;;;;;;;0.18;86.86;101415.39;1369365;93;22788;-80
2022/01/15 11:41:53;;;;;;;55.87;30.47;;;;;;;0.16;86.87;101413.74;1402159;90;21625;-81